Time;durP1;ratioP1;P1;durP2;ratioP2;P2;SDS_P1;SDS_P2;PMS_P1;PMS_P2;Temp;Humidity;BMP_temperature;BMP_pressure;BME280_temperature;BME280_humidity;BME280_pressure;Samples;Min_cycle;Max_cycle;Signal;HPM_P1;HPM_P2
2023/11/28 00:00:55;;;;;;;32.53;20.23;;;;;;;0.75;76.91;98951.03;5126778;27;20202;-65
2023/11/28 00:03:23;;;;;;;30.57;19.87;;;;;;;0.77;76.89;98955.25;5116425;27;20204;-64
2023/11/28 00:05:51;;;;;;;32.33;19.70;;;;;;;0.76;76.87;98948.50;5118731;27;20205;-63
2023/11/28 00:08:20;;;;;;;35.70;20.57;;;;;;;0.76;76.74;98953.56;5113688;27;20212;-65
2023/11/28 00:10:48;;;;;;;34.70;20.80;;;;;;;0.78;76.32;98953.59;5114104;27;20247;-67
2023/11/28 00:13:16;;;;;;;32.83;20.10;;;;;;;0.80;76.96;98959.50;5104137;28;20281;-63
2023/11/28 00:15:44;;;;;;;35.47;20.43;;;;;;;0.82;76.88;98958.72;5116940;27;20330;-65
2023/11/28 00:18:14;;;;;;;35.87;20.50;;;;;;;0.82;76.62;98962.94;5114173;27;20681;-63
2023/11/28 00:20:42;;;;;;;38.00;20.93;;;;;;;0.80;76.84;98956.97;5124595;27;20200;-68
2023/11/28 00:23:10;;;;;;;33.07;20.60;;;;;;;0.80;76.01;98960.38;5117364;27;20201;-67
2023/11/28 00:25:40;;;;;;;34.43;21.60;;;;;;;0.79;76.33;98962.91;5118634;27;20275;-68
2023/11/28 00:28:08;;;;;;;32.43;19.70;;;;;;;0.81;76.40;98964.63;5121674;27;20216;-68
2023/11/28 00:30:36;;;;;;;32.43;19.47;;;;;;;0.81;75.98;98961.22;5112027;27;20204;-67
2023/11/28 00:33:04;;;;;;;34.03;20.63;;;;;;;0.80;75.85;98957.81;5105604;27;20274;-68
2023/11/28 00:35:34;;;;;;;30.73;19.30;;;;;;;0.80;75.93;98957.81;5116350;27;20667;-68
2023/11/28 00:38:02;;;;;;;34.93;20.20;;;;;;;0.81;75.76;98964.63;5108214;28;20685;-67
2023/11/28 00:40:31;;;;;;;34.50;20.03;;;;;;;0.78;76.35;98951.91;5112896;27;20720;-68
2023/11/28 00:43:00;;;;;;;32.10;19.67;;;;;;;0.80;75.86;98955.28;5113236;28;20229;-68
2023/11/28 00:45:28;;;;;;;34.17;20.43;;;;;;;0.81;75.78;98949.41;5121709;27;20200;-68
2023/11/28 00:47:56;;;;;;;36.13;19.73;;;;;;;0.85;75.77;98951.13;5122472;27;20219;-69
2023/11/28 00:50:24;;;;;;;34.50;20.83;;;;;;;0.85;75.80;98948.59;5105236;27;20204;-67
2023/11/28 00:52:53;;;;;;;33.40;19.33;;;;;;;0.86;76.24;98937.63;5118079;27;20247;-66
2023/11/28 00:55:21;;;;;;;34.87;20.43;;;;;;;0.87;75.48;98939.31;5119435;27;20224;-69
2023/11/28 00:57:49;;;;;;;33.13;20.40;;;;;;;0.88;75.88;98932.53;5114309;27;20207;-68
2023/11/28 01:00:18;;;;;;;35.17;20.13;;;;;;;0.87;75.77;98931.69;5106862;28;20232;-69
2023/11/28 01:02:46;;;;;;;33.53;20.93;;;;;;;0.88;75.30;98932.53;5116190;27;20200;-70
2023/11/28 01:05:15;;;;;;;34.60;20.87;;;;;;;0.87;75.42;98934.22;5115739;27;20206;-68
2023/11/28 01:07:42;;;;;;;34.70;21.20;;;;;;;0.83;75.05;98924.91;5104161;27;20201;-70
2023/11/28 01:10:12;;;;;;;32.77;20.13;;;;;;;0.83;75.32;98927.44;5106391;27;20259;-70
2023/11/28 01:12:40;;;;;;;33.17;20.17;;;;;;;0.84;75.00;98913.91;5121931;27;20277;-68
2023/11/28 01:15:09;;;;;;;32.87;19.03;;;;;;;0.88;75.25;98922.41;5114359;27;20235;-66
2023/11/28 01:17:37;;;;;;;33.80;19.03;;;;;;;0.86;74.38;98909.72;5107560;27;20618;-62
2023/11/28 01:20:06;;;;;;;32.63;19.80;;;;;;;0.82;74.22;98909.69;5117511;27;20230;-63
2023/11/28 01:22:34;;;;;;;33.30;19.80;;;;;;;0.78;74.30;98908.81;5111370;28;20239;-62
2023/11/28 01:25:03;;;;;;;33.13;20.30;;;;;;;0.77;74.45;98894.41;5113514;27;20208;-63
2023/11/28 01:27:32;;;;;;;34.77;20.43;;;;;;;0.78;74.82;98906.28;5105453;28;20269;-64
2023/11/28 01:30:00;;;;;;;31.27;19.77;;;;;;;0.79;74.57;98897.81;5117293;27;20289;-62
2023/11/28 01:32:28;;;;;;;31.37;19.37;;;;;;;0.80;74.73;98903.72;5113611;27;20236;-61
2023/11/28 01:34:57;;;;;;;34.70;20.33;;;;;;;0.82;74.94;98894.47;5115549;27;20204;-63
2023/11/28 01:37:25;;;;;;;32.00;19.03;;;;;;;0.83;74.84;98886.88;5114359;27;20248;-62
2023/11/28 01:39:53;;;;;;;32.00;19.00;;;;;;;0.86;74.86;98899.56;5117664;27;20249;-63
2023/11/28 01:42:21;;;;;;;33.03;19.63;;;;;;;0.87;74.19;98891.13;5113214;27;20228;-62
2023/11/28 01:44:50;;;;;;;33.70;19.37;;;;;;;0.87;74.64;98880.13;5143305;27;20211;-66
2023/11/28 01:47:18;;;;;;;31.90;19.47;;;;;;;0.89;74.62;98884.41;5116524;27;20203;-66
2023/11/28 01:49:47;;;;;;;29.20;17.70;;;;;;;0.85;74.79;98871.69;5114849;27;20256;-61
2023/11/28 01:52:16;;;;;;;33.70;20.03;;;;;;;0.84;74.59;98880.09;5120557;27;20200;-63
2023/11/28 01:54:46;;;;;;;35.03;19.33;;;;;;;0.83;74.38;98883.47;5112464;27;20643;-63
2023/11/28 01:57:14;;;;;;;33.23;19.27;;;;;;;0.85;74.09;98887.75;5116393;27;20200;-62
2023/11/28 01:59:42;;;;;;;27.87;17.60;;;;;;;0.83;74.04;98893.63;5111228;27;20204;-61
2023/11/28 02:02:12;;;;;;;34.03;19.80;;;;;;;0.84;74.00;98888.56;5113808;27;20672;-62
2023/11/28 02:04:40;;;;;;;38.27;19.30;;;;;;;0.83;74.25;98888.56;5119452;27;21071;-62
2023/11/28 02:07:08;;;;;;;34.83;20.60;;;;;;;0.83;74.00;98886.88;5113024;27;20227;-67
2023/11/28 02:09:39;;;;;;;34.70;19.27;;;;;;;0.81;74.71;98880.06;5120145;27;20219;-63
2023/11/28 02:12:10;;;;;;;33.93;19.50;;;;;;;0.81;74.93;98886.03;5112789;27;20620;-65
2023/11/28 02:14:43;;;;;;;36.53;20.00;;;;;;;0.81;74.85;98882.59;5110182;28;20623;-61
2023/11/28 02:17:13;;;;;;;36.93;20.40;;;;;;;0.78;74.95;98875.84;5117423;28;20290;-61
2023/11/28 02:19:41;;;;;;;33.87;20.67;;;;;;;0.80;75.47;98874.16;5112125;27;20203;-63
2023/11/28 02:22:10;;;;;;;33.93;21.03;;;;;;;0.80;75.07;98878.38;5104843;28;20291;-62
2023/11/28 02:24:41;;;;;;;33.23;20.57;;;;;;;0.81;74.61;98864.88;5112841;28;20199;-62
2023/11/28 02:27:10;;;;;;;38.27;20.83;;;;;;;0.80;74.66;98861.47;5117128;28;20196;-63
2023/11/28 02:29:40;;;;;;;32.63;19.70;;;;;;;0.76;75.04;98863.97;5111360;28;20292;-65
2023/11/28 02:32:08;;;;;;;36.20;21.33;;;;;;;0.79;75.18;98853.88;5118532;28;20647;-64
2023/11/28 02:34:38;;;;;;;33.47;20.23;;;;;;;0.81;75.05;98855.59;5113531;28;20200;-64
2023/11/28 02:37:06;;;;;;;32.07;19.93;;;;;;;0.79;75.15;98847.13;5122965;27;20256;-65
2023/11/28 02:39:34;;;;;;;34.23;20.63;;;;;;;0.88;74.70;98859.00;5107570;27;20285;-65
2023/11/28 02:42:02;;;;;;;34.80;20.43;;;;;;;0.88;74.95;98859.00;5124802;27;20205;-66
2023/11/28 02:44:31;;;;;;;36.87;20.97;;;;;;;0.86;75.12;98853.09;5115648;28;20226;-64
2023/11/28 02:46:59;;;;;;;35.57;20.20;;;;;;;0.86;74.95;98856.47;5116868;27;20778;-63
2023/11/28 02:49:27;;;;;;;31.17;19.20;;;;;;;0.87;74.69;98852.25;5117288;27;20226;-64
2023/11/28 02:51:55;;;;;;;32.23;19.93;;;;;;;0.88;74.54;98856.47;5118662;27;20195;-66
2023/11/28 02:54:23;;;;;;;33.10;19.27;;;;;;;0.89;75.02;98848.91;5120070;27;20651;-63
2023/11/28 02:56:53;;;;;;;33.27;20.20;;;;;;;0.88;74.70;98844.63;5111649;27;20569;-65
2023/11/28 02:59:21;;;;;;;30.33;19.57;;;;;;;0.85;74.94;98829.44;5107887;27;20281;-63
2023/11/28 03:01:53;;;;;;;35.60;20.83;;;;;;;0.92;74.93;98837.91;5112199;27;20208;-64
2023/11/28 03:04:22;;;;;;;32.87;19.73;;;;;;;0.92;74.37;98837.91;5120712;27;20211;-64
2023/11/28 03:06:50;;;;;;;34.17;19.50;;;;;;;0.91;74.54;98847.19;5110314;27;20313;-64
2023/11/28 03:09:18;;;;;;;35.43;21.00;;;;;;;0.91;74.38;98842.13;5117520;27;20244;-65
2023/11/28 03:11:46;;;;;;;35.00;20.30;;;;;;;0.90;74.73;98830.28;5115346;27;20235;-64
2023/11/28 03:14:14;;;;;;;33.87;20.53;;;;;;;0.90;74.85;98829.44;5115266;27;20670;-65
2023/11/28 03:16:42;;;;;;;32.63;19.13;;;;;;;0.90;74.79;98822.69;5118170;27;20272;-65
2023/11/28 03:19:11;;;;;;;35.27;20.07;;;;;;;0.91;74.79;98819.31;5116876;27;20204;-65
2023/11/28 03:21:40;;;;;;;37.20;20.80;;;;;;;0.93;74.31;98814.25;5115373;27;20206;-62
2023/11/28 03:24:08;;;;;;;33.63;19.83;;;;;;;0.92;74.88;98810.88;5116036;27;20200;-63
2023/11/28 03:26:38;;;;;;;38.80;21.20;;;;;;;0.90;75.10;98810.00;5114473;27;20206;-62
2023/11/28 03:29:06;;;;;;;32.77;19.60;;;;;;;0.85;74.86;98796.47;5116023;27;20231;-64
2023/11/28 03:31:34;;;;;;;32.50;20.70;;;;;;;0.92;74.93;98810.88;5110981;27;20230;-62
2023/11/28 03:34:03;;;;;;;37.30;21.07;;;;;;;0.90;74.78;98802.41;5118065;27;20724;-63
2023/11/28 03:36:33;;;;;;;35.03;19.93;;;;;;;0.92;74.99;98800.75;5119942;27;20201;-64
2023/11/28 03:39:01;;;;;;;36.13;21.43;;;;;;;0.94;74.58;98801.59;5118284;27;20207;-65
2023/11/28 03:41:29;;;;;;;35.10;20.97;;;;;;;0.94;74.76;98798.19;5118375;27;20192;-66
2023/11/28 03:43:58;;;;;;;35.53;21.23;;;;;;;0.95;74.83;98798.19;5121726;27;20203;-64
2023/11/28 03:46:26;;;;;;;35.00;20.70;;;;;;;0.95;74.28;98804.97;5116850;27;20199;-64
2023/11/28 03:48:54;;;;;;;33.53;19.77;;;;;;;0.91;74.57;98793.94;5107092;27;20196;-64
2023/11/28 03:51:22;;;;;;;31.43;20.17;;;;;;;0.89;75.00;98788.03;5121440;27;20216;-63
2023/11/28 03:53:51;;;;;;;36.63;19.97;;;;;;;0.87;74.56;98787.16;5113697;27;20659;-63
2023/11/28 03:56:19;;;;;;;35.47;20.23;;;;;;;0.89;75.07;98788.03;5101528;27;20613;-64
2023/11/28 03:58:47;;;;;;;32.00;19.73;;;;;;;0.88;75.04;98781.25;5118243;27;20324;-64
2023/11/28 04:01:15;;;;;;;35.60;21.10;;;;;;;0.81;75.27;98779.53;5112831;27;20200;-65
2023/11/28 04:03:43;;;;;;;38.67;22.73;;;;;;;0.74;75.07;98775.25;5113422;27;20336;-66
2023/11/28 04:06:11;;;;;;;38.70;22.20;;;;;;;0.68;76.08;98772.66;5115402;27;20207;-63
2023/11/28 04:08:40;;;;;;;37.43;23.57;;;;;;;0.63;76.03;98771.78;5120962;27;20208;-63
2023/11/28 04:11:09;;;;;;;38.70;23.70;;;;;;;0.56;76.64;98778.50;5117877;27;20219;-65
2023/11/28 04:13:37;;;;;;;39.20;23.27;;;;;;;0.52;76.79;98781.00;5107570;27;20651;-65
2023/11/28 04:16:05;;;;;;;37.30;23.37;;;;;;;0.48;77.38;98773.38;5114410;27;20263;-66
2023/11/28 04:18:33;;;;;;;42.67;23.93;;;;;;;0.44;77.38;98768.25;5114263;27;20310;-66
2023/11/28 04:21:01;;;;;;;37.10;22.63;;;;;;;0.38;78.25;98768.19;5118234;27;20719;-65
2023/11/28 04:23:30;;;;;;;39.90;22.53;;;;;;;0.38;77.35;98769.06;5116578;27;20210;-64
2023/11/28 04:25:58;;;;;;;38.17;23.40;;;;;;;0.33;78.16;98764.75;5111768;27;20206;-63
2023/11/28 04:28:28;;;;;;;39.53;22.17;;;;;;;0.28;77.95;98762.19;5107946;28;20268;-63
2023/11/28 04:30:56;;;;;;;39.87;22.93;;;;;;;0.26;77.59;98763.88;5105367;27;20657;-65
2023/11/28 04:33:24;;;;;;;38.90;22.20;;;;;;;0.16;78.36;98767.16;5113170;27;20644;-64
2023/11/28 04:35:53;;;;;;;44.63;22.37;;;;;;;0.15;78.17;98763.78;5113839;27;20279;-65
2023/11/28 04:38:22;;;;;;;38.97;22.63;;;;;;;0.09;77.82;98763.72;5114975;27;20192;-63
2023/11/28 04:40:54;;;;;;;40.47;21.97;;;;;;;0.07;78.00;98772.97;5120111;27;20513;-65
2023/11/28 04:43:22;;;;;;;40.90;24.37;;;;;;;0.01;78.10;98756.88;5115386;27;20663;-62
2023/11/28 04:45:52;;;;;;;39.73;22.97;;;;;;;-0.05;78.23;98755.13;5114257;27;20207;-63
2023/11/28 04:48:20;;;;;;;37.83;20.97;;;;;;;-0.09;78.73;98756.78;5113717;27;20269;-63
2023/11/28 04:50:48;;;;;;;38.47;22.10;;;;;;;-0.10;78.66;98760.16;5113858;27;20219;-64
2023/11/28 04:53:16;;;;;;;37.53;22.77;;;;;;;-0.16;78.04;98751.66;5124409;27;20199;-64
2023/11/28 04:55:44;;;;;;;39.40;21.97;;;;;;;-0.23;78.27;98755.78;5108485;27;20328;-66
2023/11/28 04:58:12;;;;;;;39.53;22.20;;;;;;;-0.29;78.16;98743.09;5112736;27;20261;-64
2023/11/28 05:00:40;;;;;;;38.53;21.30;;;;;;;-0.35;78.49;98737.94;5115251;27;20271;-63
2023/11/28 05:03:09;;;;;;;37.50;20.93;;;;;;;-0.40;78.95;98734.53;5112419;27;20662;-65
2023/11/28 05:05:37;;;;;;;40.90;21.53;;;;;;;-0.40;78.87;98740.44;5113368;27;20209;-67
2023/11/28 05:08:05;;;;;;;39.30;22.90;;;;;;;-0.40;79.42;98729.47;5103035;27;20213;-64
2023/11/28 05:10:33;;;;;;;40.20;22.37;;;;;;;-0.40;78.77;98724.41;5122265;27;20199;-65
2023/11/28 05:13:03;;;;;;;37.67;21.60;;;;;;;-0.40;79.97;98732.84;5114320;27;20615;-65
2023/11/28 05:15:32;;;;;;;40.53;21.67;;;;;;;-0.43;79.49;98724.38;5112102;28;20280;-67
2023/11/28 05:18:00;;;;;;;39.50;21.03;;;;;;;-0.45;79.01;98728.56;5121192;27;20671;-65
2023/11/28 05:20:29;;;;;;;40.97;22.13;;;;;;;-0.52;79.04;98731.00;5115382;27;20211;-64
2023/11/28 05:22:57;;;;;;;37.30;21.97;;;;;;;-0.60;78.52;98737.66;5119098;27;20678;-64
2023/11/28 05:25:27;;;;;;;41.03;22.13;;;;;;;-0.67;79.56;98737.56;5103528;28;20196;-65
2023/11/28 05:27:55;;;;;;;40.03;21.07;;;;;;;-0.74;79.79;98734.97;5108013;27;20736;-64
2023/11/28 05:30:23;;;;;;;38.27;22.20;;;;;;;-0.74;80.27;98734.97;5114818;27;20227;-64
2023/11/28 05:32:51;;;;;;;37.43;22.10;;;;;;;-0.78;80.03;98737.44;5107866;27;20762;-64
2023/11/28 05:35:19;;;;;;;37.97;20.43;;;;;;;-0.76;80.08;98738.31;5115697;27;20211;-68
2023/11/28 05:37:48;;;;;;;42.13;22.97;;;;;;;-0.79;79.07;98735.75;5107448;27;20692;-69
2023/11/28 05:40:18;;;;;;;37.83;21.80;;;;;;;-0.84;80.23;98730.63;5114168;27;20192;-68
2023/11/28 05:42:45;;;;;;;38.87;21.83;;;;;;;-0.84;80.37;98729.78;5121657;27;20665;-71
2023/11/28 05:45:13;;;;;;;37.20;20.80;;;;;;;-0.86;80.50;98724.69;5114807;27;20235;-69
2023/11/28 05:47:44;;;;;;;41.60;22.33;;;;;;;-0.87;79.63;98723.00;5109817;27;20577;-69
2023/11/28 05:50:13;;;;;;;43.90;21.90;;;;;;;-0.88;80.12;98726.38;5107906;27;20554;-64
2023/11/28 05:52:41;;;;;;;36.43;20.40;;;;;;;-0.88;79.28;98725.53;5116068;27;20212;-68
2023/11/28 05:55:10;;;;;;;33.77;19.43;;;;;;;-0.95;78.96;98718.69;5107889;27;20204;-67
2023/11/28 05:57:38;;;;;;;34.63;19.33;;;;;;;-1.04;78.97;98729.50;5117575;27;20203;-68
2023/11/28 06:00:08;;;;;;;33.30;20.47;;;;;;;-1.11;79.08;98733.63;5117099;27;20211;-68
2023/11/28 06:02:36;;;;;;;33.63;18.67;;;;;;;-1.12;79.17;98729.41;5102509;28;20211;-65
2023/11/28 06:05:05;;;;;;;32.93;19.37;;;;;;;-1.14;79.54;98731.09;5113023;27;20561;-65
2023/11/28 06:07:33;;;;;;;32.50;19.47;;;;;;;-1.09;80.87;98724.41;5112604;28;20192;-67
2023/11/28 06:10:05;;;;;;;34.37;19.67;;;;;;;-1.04;79.88;98742.16;5115572;28;20655;-67
2023/11/28 06:12:34;;;;;;;32.60;18.90;;;;;;;-1.00;78.93;98748.94;5105804;28;20680;-67
2023/11/28 06:15:02;;;;;;;33.83;19.60;;;;;;;-0.99;78.60;98728.75;5120805;27;20266;-64
2023/11/28 06:17:30;;;;;;;33.97;21.20;;;;;;;-1.01;79.35;98732.94;5110030;28;20207;-64
2023/11/28 06:19:58;;;;;;;33.67;19.23;;;;;;;-0.99;78.09;98733.81;5119349;27;20845;-63
2023/11/28 06:22:26;;;;;;;35.90;20.83;;;;;;;-1.03;78.53;98742.19;5111961;28;20206;-63
2023/11/28 06:24:54;;;;;;;33.07;19.40;;;;;;;-1.08;78.46;98738.72;5116349;28;20205;-61
2023/11/28 06:27:22;;;;;;;34.70;19.17;;;;;;;-1.13;78.43;98739.50;5117275;28;20195;-62
2023/11/28 06:29:52;;;;;;;35.13;18.87;;;;;;;-1.12;78.02;98731.94;5117434;28;20208;-64
2023/11/28 06:32:20;;;;;;;31.30;18.67;;;;;;;-1.15;77.90;98739.47;5108579;28;20223;-65
2023/11/28 06:34:49;;;;;;;34.33;18.80;;;;;;;-1.16;77.47;98735.25;5110034;28;20203;-65
2023/11/28 06:37:17;;;;;;;29.87;18.03;;;;;;;-1.21;78.41;98739.41;5108725;28;20203;-65
2023/11/28 06:39:47;;;;;;;35.77;19.20;;;;;;;-1.22;78.00;98738.53;5108823;28;20724;-65
2023/11/28 06:42:16;;;;;;;37.00;19.40;;;;;;;-1.21;78.69;98746.97;5107715;28;20207;-66
2023/11/28 06:44:45;;;;;;;34.87;19.37;;;;;;;-1.20;78.60;98742.78;5102158;28;20576;-66
2023/11/28 06:47:14;;;;;;;33.27;19.03;;;;;;;-1.23;77.93;98741.03;5116576;27;20208;-68
2023/11/28 06:49:45;;;;;;;30.20;17.87;;;;;;;-1.23;78.68;98739.38;5100122;28;20195;-67
2023/11/28 06:52:14;;;;;;;31.93;17.80;;;;;;;-1.22;77.72;98746.09;5117156;28;20690;-67
2023/11/28 06:54:42;;;;;;;31.17;17.97;;;;;;;-1.20;77.98;98743.63;5114398;28;20203;-65
2023/11/28 06:57:10;;;;;;;33.83;19.50;;;;;;;-1.20;78.85;98743.63;5114508;28;20203;-65
2023/11/28 06:59:38;;;;;;;33.43;18.33;;;;;;;-1.18;78.17;98741.94;5103360;28;20663;-65
2023/11/28 07:02:07;;;;;;;32.37;18.37;;;;;;;-1.15;77.78;98742.00;5107236;28;20188;-66
2023/11/28 07:04:36;;;;;;;31.97;18.77;;;;;;;-1.17;77.50;98748.72;5099653;28;20208;-63
2023/11/28 07:07:05;;;;;;;32.10;17.10;;;;;;;-1.19;77.14;98747.84;5117993;28;20196;-70
2023/11/28 07:09:35;;;;;;;32.13;17.77;;;;;;;-1.21;77.00;98749.50;5112801;28;20618;-62
2023/11/28 07:12:04;;;;;;;32.07;18.07;;;;;;;-1.19;76.53;98741.94;5110119;28;20634;-63
2023/11/28 07:14:32;;;;;;;31.70;17.80;;;;;;;-1.22;76.98;98741.06;5112974;28;20253;-63
2023/11/28 07:17:00;;;;;;;28.70;17.60;;;;;;;-1.25;75.87;98750.28;5113714;28;20200;-67
2023/11/28 07:19:28;;;;;;;30.73;17.50;;;;;;;-1.28;76.04;98752.78;5105904;28;20211;-69
2023/11/28 07:21:57;;;;;;;33.20;17.17;;;;;;;-1.33;75.79;98752.69;5119783;27;20199;-66
2023/11/28 07:24:25;;;;;;;32.63;18.17;;;;;;;-1.35;75.86;98753.50;5113420;28;20921;-66
2023/11/28 07:26:53;;;;;;;35.30;18.00;;;;;;;-1.34;76.86;98751.00;5114623;28;20207;-67
2023/11/28 07:29:21;;;;;;;35.23;17.87;;;;;;;-1.31;77.24;98750.19;5113527;28;20691;-67
2023/11/28 07:31:49;;;;;;;31.07;18.23;;;;;;;-1.30;76.70;98746.84;5114289;28;20208;-65
2023/11/28 07:34:18;;;;;;;31.30;17.77;;;;;;;-1.25;76.34;98756.19;5109964;27;20200;-64
2023/11/28 07:36:47;;;;;;;32.80;16.90;;;;;;;-1.27;75.25;98757.00;5115077;27;20211;-63
2023/11/28 07:39:18;;;;;;;37.83;17.73;;;;;;;-1.34;76.54;98760.25;5102620;28;20626;-65
2023/11/28 07:41:46;;;;;;;30.77;18.77;;;;;;;-1.38;76.54;98753.44;5114761;27;20248;-62
2023/11/28 07:44:14;;;;;;;31.77;17.77;;;;;;;-1.34;76.98;98760.25;5116149;27;20269;-64
2023/11/28 07:46:43;;;;;;;30.97;17.70;;;;;;;-1.31;76.83;98766.19;5110405;28;20212;-62
2023/11/28 07:49:10;;;;;;;33.67;19.53;;;;;;;-1.28;76.82;98773.84;5112146;28;20290;-62
2023/11/28 07:51:39;;;;;;;29.80;18.33;;;;;;;-1.22;75.75;98770.53;5114592;28;20630;-61
2023/11/28 07:54:07;;;;;;;30.00;18.00;;;;;;;-1.19;75.99;98780.69;5114200;28;20208;-62
2023/11/28 07:56:37;;;;;;;30.87;17.93;;;;;;;-1.17;76.06;98771.47;5106963;27;20204;-64
2023/11/28 07:59:05;;;;;;;33.73;18.23;;;;;;;-1.17;76.05;98771.47;5112663;27;20654;-65
2023/11/28 08:01:33;;;;;;;31.57;19.20;;;;;;;-1.15;74.61;98772.31;5115685;27;20601;-63
2023/11/28 08:04:01;;;;;;;33.63;18.90;;;;;;;-1.16;75.34;98770.63;5114006;27;20227;-64
2023/11/28 08:06:30;;;;;;;34.37;19.73;;;;;;;-1.19;74.53;98780.69;5112606;28;20666;-63
2023/11/28 08:08:58;;;;;;;36.93;19.40;;;;;;;-1.20;75.32;98779.00;5112920;27;20206;-62
2023/11/28 08:11:26;;;;;;;37.00;19.43;;;;;;;-1.20;75.09;98778.16;5113034;27;20200;-62
2023/11/28 08:13:55;;;;;;;33.70;18.67;;;;;;;-1.18;75.64;98782.38;5112883;28;20269;-62
2023/11/28 08:16:23;;;;;;;33.53;18.33;;;;;;;-1.13;75.38;98775.72;5109330;27;20745;-70
2023/11/28 08:18:51;;;;;;;33.40;20.13;;;;;;;-1.10;74.58;98780.84;5111786;28;20214;-65
2023/11/28 08:21:20;;;;;;;35.63;18.80;;;;;;;-1.13;74.86;98780.78;5113261;27;20211;-66
2023/11/28 08:23:47;;;;;;;33.17;18.60;;;;;;;-1.08;74.42;98783.38;5108590;27;20196;-66
2023/11/28 08:26:16;;;;;;;32.03;18.97;;;;;;;-1.10;74.66;98778.31;5115951;27;20208;-63
2023/11/28 08:28:44;;;;;;;33.17;19.87;;;;;;;-1.10;74.44;98777.47;5118955;27;20219;-66
2023/11/28 08:31:15;;;;;;;33.37;18.23;;;;;;;-1.06;74.90;98779.22;5108013;27;20218;-65
2023/11/28 08:33:43;;;;;;;36.83;20.97;;;;;;;-1.06;75.12;98772.47;5103169;27;20212;-66
2023/11/28 08:36:11;;;;;;;38.63;20.27;;;;;;;-1.07;75.26;98769.91;5110794;27;20667;-64
2023/11/28 08:38:39;;;;;;;29.43;18.13;;;;;;;-1.11;74.32;98769.00;5109247;27;20650;-65
2023/11/28 08:41:08;;;;;;;32.60;18.63;;;;;;;-1.12;74.17;98774.91;5110571;27;20618;-65
2023/11/28 08:43:36;;;;;;;31.00;18.80;;;;;;;-1.12;74.88;98776.59;5104917;27;20556;-67
2023/11/28 08:46:04;;;;;;;36.97;20.53;;;;;;;-1.12;74.39;98772.38;5111290;27;20211;-67
2023/11/28 08:48:34;;;;;;;35.27;19.63;;;;;;;-1.13;74.87;98765.63;5107038;27;20204;-65
2023/11/28 08:51:02;;;;;;;38.03;19.80;;;;;;;-1.11;75.09;98763.94;5099047;27;20192;-63
2023/11/28 08:53:30;;;;;;;36.27;19.13;;;;;;;-1.10;74.31;98767.34;5109245;27;20756;-65
2023/11/28 08:55:58;;;;;;;32.57;19.93;;;;;;;-1.09;75.24;98764.00;5103664;27;20248;-64
2023/11/28 08:58:26;;;;;;;39.63;21.67;;;;;;;-1.04;75.22;98767.44;5105055;27;20264;-65
2023/11/28 09:00:54;;;;;;;36.50;19.93;;;;;;;-1.02;75.02;98764.09;5112111;27;20655;-67
2023/11/28 09:03:23;;;;;;;38.63;19.47;;;;;;;-1.05;74.94;98761.53;5118314;27;20604;-66
2023/11/28 09:05:53;;;;;;;37.77;19.87;;;;;;;-0.97;74.70;98761.63;5113906;27;20200;-65
2023/11/28 09:08:22;;;;;;;35.17;19.37;;;;;;;-0.97;74.95;98765.00;5112416;27;20208;-64
2023/11/28 09:10:50;;;;;;;35.50;19.77;;;;;;;-0.98;74.55;98759.94;5113144;27;20224;-66
2023/11/28 09:13:20;;;;;;;36.83;19.40;;;;;;;-1.06;74.13;98757.31;5113385;27;20302;-66
2023/11/28 09:15:48;;;;;;;37.47;20.57;;;;;;;-1.04;74.16;98750.56;5106662;27;20238;-66
2023/11/28 09:18:16;;;;;;;37.47;21.10;;;;;;;-1.03;74.78;98749.78;5106587;27;20215;-65
2023/11/28 09:20:43;;;;;;;38.37;20.70;;;;;;;-1.07;75.02;98747.16;5107319;27;20208;-66
2023/11/28 09:23:13;;;;;;;41.60;21.53;;;;;;;-1.07;75.13;98745.50;5121467;27;20324;-64
2023/11/28 09:25:41;;;;;;;36.63;20.93;;;;;;;-1.08;74.79;98738.72;5111939;27;20219;-66
2023/11/28 09:28:19;;;;;;;39.93;20.17;;;;;;;-1.01;74.18;98732.94;5112265;27;20241;-67
2023/11/28 09:30:47;;;;;;;42.43;20.10;;;;;;;-1.00;74.22;98731.25;5110600;27;20265;-67
2023/11/28 09:33:15;;;;;;;41.20;20.77;;;;;;;-1.02;75.14;98732.91;5115405;27;20685;-66
2023/11/28 09:35:44;;;;;;;39.83;21.40;;;;;;;-1.02;74.98;98733.75;5109984;27;20200;-66
2023/11/28 09:38:14;;;;;;;38.07;21.30;;;;;;;-0.97;74.94;98733.81;5113064;27;20560;-66
2023/11/28 09:40:42;;;;;;;43.43;22.37;;;;;;;-0.93;76.02;98727.13;5109253;27;20213;-66
2023/11/28 09:43:10;;;;;;;43.00;22.37;;;;;;;-0.84;74.77;98727.25;5112621;27;20202;-69
2023/11/28 09:45:41;;;;;;;45.57;23.40;;;;;;;-0.83;74.58;98727.25;5115923;27;20199;-67
2023/11/28 09:48:13;;;;;;;46.43;23.30;;;;;;;-0.83;74.12;98713.78;5115635;27;20300;-69
2023/11/28 09:50:46;;;;;;;42.67;22.50;;;;;;;-0.83;74.06;98712.09;5107057;27;20681;-66
2023/11/28 09:53:15;;;;;;;41.87;21.73;;;;;;;-0.78;73.62;98715.50;5108201;27;20728;-68
2023/11/28 09:55:44;;;;;;;47.87;23.23;;;;;;;-0.71;73.87;98710.53;5110365;27;20230;-65
2023/11/28 09:58:14;;;;;;;40.57;21.43;;;;;;;-0.69;73.60;98702.16;5102348;27;20200;-67
2023/11/28 10:00:43;;;;;;;36.13;20.67;;;;;;;-0.68;72.83;98703.00;5111688;27;20214;-66
2023/11/28 10:03:11;;;;;;;41.47;21.60;;;;;;;-0.68;73.70;98703.84;5104749;27;20203;-65
2023/11/28 10:05:39;;;;;;;39.00;19.77;;;;;;;-0.63;72.63;98699.66;5112533;27;20207;-67
2023/11/28 10:08:10;;;;;;;39.43;20.43;;;;;;;-0.60;72.00;98689.59;5119173;27;20658;-67
2023/11/28 10:10:43;;;;;;;34.73;19.63;;;;;;;-0.57;72.70;98692.16;5118980;27;20204;-67
2023/11/28 10:13:12;;;;;;;37.33;19.37;;;;;;;-0.46;72.55;98692.28;5117243;27;20207;-66
2023/11/28 10:15:42;;;;;;;41.10;20.70;;;;;;;-0.35;72.04;98684.81;5116192;27;20269;-69
2023/11/28 10:18:10;;;;;;;36.77;20.47;;;;;;;-0.29;71.57;98682.34;5106471;27;20659;-67
2023/11/28 10:20:38;;;;;;;37.20;19.17;;;;;;;-0.26;71.04;98683.22;5103981;28;20207;-69
2023/11/28 10:23:06;;;;;;;37.70;18.90;;;;;;;-0.23;70.22;98681.53;5119715;27;20214;-65
2023/11/28 10:25:34;;;;;;;34.00;17.50;;;;;;;-0.29;69.55;98675.59;5103950;28;20672;-67
2023/11/28 10:28:05;;;;;;;34.87;20.13;;;;;;;-0.35;70.86;98667.09;5110953;28;20288;-71
2023/11/28 10:30:37;;;;;;;36.37;20.20;;;;;;;-0.23;70.10;98672.25;5107574;27;20831;-68
2023/11/28 10:33:07;;;;;;;38.80;20.60;;;;;;;-0.16;70.45;98668.09;5106687;28;20216;-69
2023/11/28 10:35:40;;;;;;;38.43;20.73;;;;;;;-0.16;70.08;98663.88;5111996;28;20655;-66
2023/11/28 10:38:14;;;;;;;38.57;20.23;;;;;;;-0.21;70.28;98659.63;5103826;28;20292;-65
2023/11/28 10:40:44;;;;;;;37.97;20.93;;;;;;;-0.20;69.67;98664.69;5108558;28;20195;-66
2023/11/28 10:43:13;;;;;;;43.40;19.90;;;;;;;-0.23;70.36;98661.28;5108472;28;20207;-63
2023/11/28 10:45:43;;;;;;;36.93;20.17;;;;;;;-0.22;70.90;98653.72;5115360;27;20228;-63
2023/11/28 10:48:11;;;;;;;39.20;20.00;;;;;;;-0.19;71.00;98653.72;5115913;28;20211;-63
2023/11/28 10:50:41;;;;;;;42.57;22.17;;;;;;;-0.14;70.63;98657.16;5105678;27;20624;-63
2023/11/28 10:53:12;;;;;;;37.63;20.97;;;;;;;-0.13;70.20;98665.59;5105045;28;20276;-63
2023/11/28 10:55:43;;;;;;;39.43;20.87;;;;;;;-0.17;70.87;98656.28;5109021;27;20226;-66
2023/11/28 10:58:15;;;;;;;43.57;21.33;;;;;;;-0.16;70.95;98647.84;5111244;27;20678;-62
2023/11/28 11:00:45;;;;;;;37.83;21.17;;;;;;;-0.14;70.79;98652.09;5122168;27;20207;-64
2023/11/28 11:03:14;;;;;;;38.17;20.23;;;;;;;-0.13;70.53;98651.25;5111289;27;20208;-65
2023/11/28 11:05:43;;;;;;;38.70;20.33;;;;;;;-0.15;70.98;98642.78;5110266;27;20197;-66
2023/11/28 11:08:12;;;;;;;35.00;19.37;;;;;;;-0.10;70.66;98643.69;5120156;27;20204;-64
2023/11/28 11:10:41;;;;;;;36.30;19.60;;;;;;;-0.07;70.28;98643.72;5112908;27;20244;-64
2023/11/28 11:13:20;;;;;;;36.23;20.20;;;;;;;-0.07;69.92;98638.66;5111118;27;20200;-65
2023/11/28 11:16:00;;;;;;;33.70;19.03;;;;;;;-0.15;69.70;98637.72;5105870;27;20280;-65
2023/11/28 11:18:36;;;;;;;37.10;19.47;;;;;;;-0.15;70.04;98642.78;5114339;27;20203;-63
2023/11/28 11:21:10;;;;;;;35.10;18.07;;;;;;;-0.16;69.73;98641.09;5109772;27;20240;-65
2023/11/28 11:23:41;;;;;;;32.90;18.03;;;;;;;-0.17;69.86;98630.97;5116105;27;20230;-66
2023/11/28 11:26:09;;;;;;;35.80;19.07;;;;;;;-0.20;70.79;98641.06;5112116;27;20204;-64